createdAt,value
2022-11-05T00:00:03.397Z,4.92
2022-11-05T00:00:15.119Z,4.92
2022-11-05T00:00:26.848Z,4.92
2022-11-05T00:00:37.926Z,4.94
2022-11-05T00:00:50.120Z,4.95
2022-11-05T00:01:00.920Z,4.94
2022-11-05T00:01:13.156Z,4.95
2022-11-05T00:01:23.999Z,4.95
2022-11-05T00:01:35.803Z,4.96
2022-11-05T00:01:47.617Z,4.96
2022-11-05T00:02:00.296Z,4.98
2022-11-05T00:02:12.540Z,4.98
2022-11-05T00:02:23.358Z,4.98
2022-11-05T00:02:37.513Z,4.98
2022-11-05T00:02:49.968Z,4.99
2022-11-05T00:03:02.023Z,4.99
2022-11-05T00:03:14.598Z,4.99
2022-11-05T00:03:27.877Z,4.99
2022-11-05T00:03:40.144Z,4.99
2022-11-05T00:03:51.896Z,5.01
2022-11-05T00:04:02.734Z,5.02
2022-11-05T00:04:15.550Z,4.99
2022-11-05T00:04:30.937Z,5.02
2022-11-05T00:04:43.686Z,5.02
2022-11-05T00:04:55.429Z,5.01
2022-11-05T00:05:08.638Z,5.02
2022-11-05T00:05:20.381Z,5.04
2022-11-05T00:05:32.150Z,5.02
2022-11-05T00:05:42.895Z,5.04
2022-11-05T00:05:53.659Z,5.04
2022-11-05T00:06:04.460Z,5.04
2022-11-05T00:06:15.262Z,5.05
2022-11-05T00:06:27.061Z,5.05
2022-11-05T00:06:40.081Z,5.04
2022-11-05T00:06:51.919Z,5.04
2022-11-05T00:07:04.850Z,5.05
2022-11-05T00:07:18.100Z,5.07
2022-11-05T00:07:29.865Z,5.04
2022-11-05T00:07:40.629Z,5.05
2022-11-05T00:07:52.378Z,5.07
2022-11-05T00:08:04.851Z,5.05
2022-11-05T00:08:17.320Z,5.05
2022-11-05T00:08:28.039Z,5.09
2022-11-05T00:08:38.862Z,5.07
2022-11-05T00:08:50.611Z,5.07
2022-11-05T00:09:01.382Z,5.10
2022-11-05T00:09:13.810Z,5.07
2022-11-05T00:09:24.597Z,5.09
2022-11-05T00:09:35.388Z,5.10
2022-11-05T00:09:47.092Z,5.10
2022-11-05T00:09:58.830Z,5.10
2022-11-05T00:10:09.649Z,5.10
2022-11-05T00:10:22.100Z,5.09
2022-11-05T00:10:32.879Z,5.10
2022-11-05T00:10:43.631Z,5.12
2022-11-05T00:10:54.401Z,5.10
2022-11-05T00:11:05.152Z,5.12
2022-11-05T00:11:18.620Z,5.12
2022-11-05T00:11:29.410Z,5.12
2022-11-05T00:11:40.228Z,5.13
2022-11-05T00:11:51.912Z,5.12
2022-11-05T00:12:04.909Z,5.12
2022-11-05T00:12:17.620Z,5.13
2022-11-05T00:12:29.386Z,5.13
2022-11-05T00:13:20.308Z,0.00
2022-11-05T00:13:32.497Z,5.14
2022-11-05T00:13:44.229Z,5.14
2022-11-05T00:13:54.978Z,5.13
2022-11-05T00:14:08.197Z,5.13
2022-11-05T00:14:19.928Z,5.14
2022-11-05T00:14:31.877Z,5.14
2022-11-05T00:14:43.640Z,5.14
2022-11-05T00:14:54.385Z,5.14
2022-11-05T00:15:05.156Z,5.14
2022-11-05T00:15:15.911Z,5.14
2022-11-05T00:15:28.367Z,5.17
2022-11-05T00:15:39.207Z,5.17
2022-11-05T00:15:50.978Z,5.16
2022-11-05T00:16:03.220Z,5.17
2022-11-05T00:16:15.498Z,5.16
2022-11-05T00:16:27.948Z,5.17
2022-11-05T00:16:38.737Z,5.17
2022-11-05T00:16:51.194Z,5.17
2022-11-05T00:17:02.957Z,5.19
2022-11-05T00:17:15.439Z,5.17
2022-11-05T00:17:26.289Z,5.19
2022-11-05T00:17:39.517Z,5.19
2022-11-05T00:17:51.987Z,5.19
2022-11-05T00:18:05.720Z,5.19
2022-11-05T00:18:17.479Z,5.20
2022-11-05T00:18:28.207Z,5.20
2022-11-05T00:18:39.917Z,5.20
2022-11-05T00:18:50.708Z,5.20
2022-11-05T00:19:03.161Z,5.22
2022-11-05T00:19:15.877Z,5.20
2022-11-05T00:19:27.883Z,5.20
2022-11-05T00:19:39.618Z,5.20
2022-11-05T00:19:52.080Z,5.20
2022-11-05T00:20:02.879Z,5.22
2022-11-05T00:20:13.730Z,5.22
2022-11-05T00:20:24.479Z,5.22
2022-11-05T00:20:35.271Z,5.22
2022-11-05T00:20:46.057Z,5.22
2022-11-05T00:20:58.673Z,5.23
2022-11-05T00:21:11.630Z,5.22
2022-11-05T00:21:22.419Z,5.22
2022-11-05T00:21:33.168Z,5.23
2022-11-05T00:21:45.388Z,5.25
2022-11-05T00:21:56.212Z,5.23
2022-11-05T00:22:06.949Z,5.22
2022-11-05T00:22:19.438Z,5.22
2022-11-05T00:22:32.369Z,5.23
2022-11-05T00:22:44.854Z,5.25
2022-11-05T00:22:57.399Z,5.23
2022-11-05T00:23:10.248Z,5.25
2022-11-05T00:23:22.153Z,5.23
2022-11-05T00:23:33.878Z,5.23
2022-11-05T00:23:44.630Z,5.25
2022-11-05T00:23:55.424Z,5.23
2022-11-05T00:24:07.632Z,5.23
2022-11-05T00:24:24.065Z,5.25
2022-11-05T00:24:35.037Z,5.23
2022-11-05T00:24:46.732Z,5.23
2022-11-05T00:24:59.939Z,5.25
2022-11-05T00:25:10.734Z,5.25
2022-11-05T00:25:22.469Z,5.27
2022-11-05T00:25:33.249Z,5.27
2022-11-05T00:25:46.949Z,5.27
2022-11-05T00:26:00.112Z,5.27
2022-11-05T00:26:13.083Z,5.27
2022-11-05T00:26:24.810Z,5.28
2022-11-05T00:26:37.259Z,5.25
2022-11-05T00:26:49.018Z,5.27
2022-11-05T00:27:01.269Z,5.27
2022-11-05T00:27:13.742Z,5.28
2022-11-05T00:27:24.763Z,5.28
2022-11-05T00:27:37.171Z,5.28
2022-11-05T00:27:50.888Z,5.28
2022-11-05T00:28:04.620Z,5.28
2022-11-05T00:28:15.391Z,5.28
2022-11-05T00:28:27.828Z,5.30
2022-11-05T00:28:40.090Z,5.28
2022-11-05T00:28:51.853Z,5.30
2022-11-05T00:29:04.339Z,5.28
2022-11-05T00:29:16.851Z,5.28
2022-11-05T00:29:28.631Z,5.30
2022-11-05T00:29:41.100Z,5.30
2022-11-05T00:29:51.848Z,5.30
2022-11-05T00:30:03.571Z,5.30
2022-11-05T00:30:14.339Z,5.30
2022-11-05T00:30:25.101Z,5.31
2022-11-05T00:30:37.563Z,5.30
2022-11-05T00:30:49.795Z,5.30
2022-11-05T00:31:02.250Z,5.30
2022-11-05T00:31:14.510Z,5.30
2022-11-05T00:31:27.479Z,5.31
2022-11-05T00:31:38.253Z,5.31
2022-11-05T00:31:49.013Z,5.31
2022-11-05T00:31:59.769Z,5.31
2022-11-05T00:32:10.551Z,5.31
2022-11-05T00:32:21.302Z,5.31
2022-11-05T00:32:32.044Z,5.30
2022-11-05T00:32:42.771Z,5.32
2022-11-05T00:32:53.528Z,5.30
2022-11-05T00:33:04.310Z,5.32
2022-11-05T00:33:15.140Z,5.31
2022-11-05T00:33:28.370Z,5.31
2022-11-05T00:33:40.826Z,5.31
2022-11-05T00:33:53.029Z,5.31
2022-11-05T00:34:06.001Z,5.31
2022-11-05T00:34:16.781Z,5.30
2022-11-05T00:34:30.026Z,5.32
2022-11-05T00:34:42.776Z,5.34
2022-11-05T00:34:53.568Z,5.32
2022-11-05T00:35:05.281Z,5.31
2022-11-05T00:35:17.082Z,5.31
2022-11-05T00:35:27.842Z,5.31
2022-11-05T00:35:39.599Z,5.32
2022-11-05T00:35:50.390Z,5.34
2022-11-05T00:36:02.153Z,5.32
2022-11-05T00:36:14.610Z,5.32
2022-11-05T00:36:26.312Z,5.32
2022-11-05T00:36:39.319Z,5.32
2022-11-05T00:36:51.731Z,5.32
2022-11-05T00:37:05.210Z,5.32
2022-11-05T00:37:16.910Z,5.34
2022-11-05T00:37:28.798Z,5.34
2022-11-05T00:37:45.648Z,5.32
2022-11-05T00:37:58.413Z,5.32
2022-11-05T00:38:09.202Z,5.34
2022-11-05T00:38:20.012Z,5.34
2022-11-05T00:38:32.281Z,5.32
2022-11-05T00:38:43.061Z,5.32
2022-11-05T00:38:53.821Z,5.34
2022-11-05T00:39:05.565Z,5.32
2022-11-05T00:39:17.302Z,5.32
2022-11-05T00:39:29.071Z,5.32
2022-11-05T00:39:42.290Z,5.32
2022-11-05T00:39:55.501Z,5.34
2022-11-05T00:40:07.921Z,5.34
2022-11-05T00:40:18.722Z,5.32
2022-11-05T00:40:31.151Z,5.32
2022-11-05T00:40:41.955Z,5.32
2022-11-05T00:40:52.735Z,5.32
2022-11-05T00:41:05.932Z,5.32
2022-11-05T00:41:16.681Z,5.32
2022-11-05T00:41:28.452Z,5.32
2022-11-05T00:41:40.431Z,5.32
2022-11-05T00:41:52.673Z,5.31
2022-11-05T00:42:03.632Z,5.31
2022-11-05T00:42:17.342Z,5.31
2022-11-05T00:42:29.035Z,5.31
2022-11-05T00:42:41.523Z,5.31
2022-11-05T00:42:53.302Z,5.31
2022-11-05T00:43:04.045Z,5.30
2022-11-05T00:43:14.792Z,5.30
2022-11-05T00:43:25.562Z,5.30
2022-11-05T00:43:38.004Z,5.30
2022-11-05T00:43:48.772Z,5.28
2022-11-05T00:44:00.773Z,5.30
2022-11-05T00:44:13.238Z,5.28
2022-11-05T00:44:24.033Z,5.30
2022-11-05T00:44:37.249Z,5.27
2022-11-05T00:44:47.982Z,5.27
2022-11-05T00:44:59.683Z,5.27
2022-11-05T00:45:11.402Z,5.25
2022-11-05T00:45:22.255Z,5.25
2022-11-05T00:45:33.023Z,5.25
2022-11-05T00:45:43.783Z,5.25
2022-11-05T00:45:54.553Z,5.25
2022-11-05T00:46:08.295Z,5.25
2022-11-05T00:46:19.055Z,5.23
2022-11-05T00:46:29.791Z,5.23
2022-11-05T00:46:42.222Z,5.23
2022-11-05T00:46:59.623Z,5.22
2022-11-05T00:47:12.584Z,5.23
2022-11-05T00:47:25.044Z,5.22
2022-11-05T00:47:35.812Z,5.20
2022-11-05T00:47:48.245Z,5.20
2022-11-05T00:47:59.993Z,5.20
2022-11-05T00:48:12.465Z,5.20
2022-11-05T00:48:23.198Z,5.20
2022-11-05T00:48:34.974Z,5.19
2022-11-05T00:48:46.744Z,5.19
2022-11-05T00:49:00.453Z,5.17
2022-11-05T00:49:12.184Z,5.17
2022-11-05T00:49:24.654Z,5.17
2022-11-05T00:49:36.900Z,5.17
2022-11-05T00:49:47.674Z,5.16
2022-11-05T00:49:59.905Z,5.17
2022-11-05T00:50:11.913Z,5.16
2022-11-05T00:50:23.613Z,5.16
2022-11-05T00:50:34.423Z,5.16
2022-11-05T00:50:46.234Z,5.13
2022-11-05T00:50:57.023Z,5.14
2022-11-05T00:51:07.772Z,5.14
2022-11-05T00:51:18.568Z,5.14
2022-11-05T00:51:30.833Z,5.13
2022-11-05T00:51:41.602Z,5.12
2022-11-05T00:51:53.384Z,5.12
2022-11-05T00:52:05.083Z,5.12
2022-11-05T00:52:16.836Z,5.13
2022-11-05T00:52:27.635Z,5.10
2022-11-05T00:52:39.885Z,5.10
2022-11-05T00:52:50.672Z,5.12
2022-11-05T00:53:01.424Z,5.07
2022-11-05T00:53:13.531Z,5.09
2022-11-05T00:53:24.426Z,5.09
2022-11-05T00:53:36.147Z,5.07
2022-11-05T00:53:46.888Z,5.07
2022-11-05T00:53:59.314Z,5.07
2022-11-05T00:54:11.054Z,5.05
2022-11-05T00:54:22.816Z,5.04
2022-11-05T00:54:35.030Z,5.05
2022-11-05T00:54:47.755Z,5.05
2022-11-05T00:54:59.494Z,5.04
2022-11-05T00:55:10.244Z,5.04
2022-11-05T00:55:21.014Z,5.04
2022-11-05T00:55:33.517Z,5.04
2022-11-05T00:55:44.243Z,5.02
2022-11-05T00:55:56.726Z,5.02
2022-11-05T00:56:08.946Z,5.01
2022-11-05T00:56:19.943Z,5.01
2022-11-05T00:56:30.742Z,5.01
2022-11-05T00:56:43.189Z,5.01
2022-11-05T00:56:59.419Z,4.99
2022-11-05T00:57:12.725Z,4.99
2022-11-05T00:57:23.458Z,4.99
2022-11-05T00:57:34.235Z,4.99
2022-11-05T00:57:46.935Z,4.99
2022-11-05T00:57:58.815Z,4.99
2022-11-05T00:58:10.532Z,4.98
2022-11-05T00:58:22.775Z,4.99
2022-11-05T00:58:35.474Z,4.99
2022-11-05T00:58:47.239Z,4.98
2022-11-05T00:58:59.015Z,4.99
2022-11-05T00:59:10.995Z,4.98
2022-11-05T00:59:21.725Z,4.98
2022-11-05T00:59:33.458Z,4.96
2022-11-05T00:59:45.155Z,4.98
2022-11-05T00:59:57.586Z,4.98
2022-11-05T01:00:09.347Z,4.96
2022-11-05T01:00:21.836Z,4.98
2022-11-05T01:00:35.059Z,4.95
2022-11-05T01:00:46.614Z,4.94
2022-11-05T01:00:58.409Z,4.95
2022-11-05T01:01:10.333Z,4.95
2022-11-05T01:01:22.395Z,4.95
2022-11-05T01:01:34.468Z,4.94
2022-11-05T01:01:47.110Z,4.95
2022-11-05T01:01:59.070Z,4.95
2022-11-05T01:02:10.911Z,4.94
2022-11-05T01:02:22.107Z,4.94
2022-11-05T01:02:34.832Z,4.94
2022-11-05T01:02:48.250Z,4.95
2022-11-05T01:03:00.977Z,4.94
2022-11-05T01:03:13.012Z,4.95
2022-11-05T01:03:25.807Z,4.92
2022-11-05T01:03:38.288Z,4.94
2022-11-05T01:03:51.850Z,4.94
2022-11-05T01:04:03.837Z,4.92
2022-11-05T01:04:14.686Z,4.94
2022-11-05T01:04:27.165Z,4.94
2022-11-05T01:04:38.903Z,4.92
2022-11-05T01:04:51.217Z,4.94
2022-11-05T01:05:02.016Z,4.91
2022-11-05T01:05:12.796Z,4.91
2022-11-05T01:05:23.632Z,4.91
2022-11-05T01:05:35.416Z,4.91
2022-11-05T01:05:46.157Z,4.91
2022-11-05T01:05:57.865Z,4.91
2022-11-05T01:06:10.356Z,4.91
2022-11-05T01:06:21.115Z,4.91
2022-11-05T01:06:31.879Z,4.89
2022-11-05T01:06:42.637Z,4.89
2022-11-05T01:06:54.387Z,4.89
2022-11-05T01:07:06.896Z,4.89
2022-11-05T01:07:17.817Z,4.88
2022-11-05T01:07:28.617Z,4.88
2022-11-05T01:07:40.343Z,4.88
2022-11-05T01:07:51.068Z,4.88
2022-11-05T01:08:01.857Z,4.88
2022-11-05T01:08:12.857Z,4.86
2022-11-05T01:08:23.595Z,4.86
2022-11-05T01:08:35.333Z,4.84
2022-11-05T01:08:46.167Z,4.86
2022-11-05T01:08:56.945Z,4.86
2022-11-05T01:09:07.717Z,4.86
2022-11-05T01:09:18.607Z,4.86
2022-11-05T01:09:29.424Z,4.84
2022-11-05T01:09:41.841Z,4.84
2022-11-05T01:09:52.579Z,4.83
2022-11-05T01:10:03.368Z,4.83
2022-11-05T01:10:14.348Z,4.84
2022-11-05T01:10:27.066Z,4.84
2022-11-05T01:10:37.872Z,4.83
2022-11-05T01:10:48.648Z,4.83
2022-11-05T01:11:01.417Z,4.83
2022-11-05T01:11:12.240Z,4.83
2022-11-05T01:11:24.059Z,4.80
2022-11-05T01:11:34.937Z,4.83
2022-11-05T01:11:46.746Z,4.83
2022-11-05T01:11:57.528Z,4.83
2022-11-05T01:12:08.334Z,4.83
2022-11-05T01:12:19.097Z,4.80
2022-11-05T01:12:31.575Z,4.80
2022-11-05T01:12:42.317Z,4.80
2022-11-05T01:12:54.048Z,4.80
2022-11-05T01:13:10.183Z,4.79
2022-11-05T01:13:21.498Z,4.80
2022-11-05T01:13:32.333Z,4.80
2022-11-05T01:13:43.118Z,4.80
2022-11-05T01:13:55.635Z,4.80
2022-11-05T01:14:06.447Z,4.80
2022-11-05T01:14:18.931Z,4.80
2022-11-05T01:14:31.381Z,4.83
2022-11-05T01:14:42.116Z,4.80
2022-11-05T01:14:52.877Z,4.80
2022-11-05T01:15:03.648Z,4.79
2022-11-05T01:15:14.436Z,4.79
2022-11-05T01:15:25.220Z,4.80
2022-11-05T01:15:36.007Z,4.79
2022-11-05T01:15:46.779Z,4.80
2022-11-05T01:15:58.488Z,4.80
2022-11-05T01:16:09.306Z,4.80
2022-11-05T01:16:20.117Z,4.80
2022-11-05T01:16:31.028Z,4.80
2022-11-05T01:16:41.768Z,4.80
2022-11-05T01:16:54.228Z,4.79
2022-11-05T01:17:05.956Z,4.80
2022-11-05T01:17:18.454Z,4.79
2022-11-05T01:17:29.258Z,4.79
2022-11-05T01:17:40.977Z,4.79
2022-11-05T01:17:51.737Z,4.79
2022-11-05T01:18:02.500Z,4.79
2022-11-05T01:18:14.199Z,4.83
2022-11-05T01:18:24.998Z,4.79
2022-11-05T01:18:35.779Z,4.79
2022-11-05T01:18:46.552Z,4.79
2022-11-05T01:18:58.276Z,4.79
2022-11-05T01:19:10.030Z,4.79
2022-11-05T01:19:21.851Z,4.79
2022-11-05T01:19:32.619Z,4.79
2022-11-05T01:19:43.419Z,4.79
2022-11-05T01:19:54.178Z,4.79
2022-11-05T01:20:04.927Z,4.79
2022-11-05T01:20:15.722Z,4.79
2022-11-05T01:20:26.491Z,4.80
2022-11-05T01:20:37.249Z,4.80
2022-11-05T01:20:48.029Z,4.79
2022-11-05T01:20:58.839Z,4.79
2022-11-05T01:21:11.591Z,4.79
2022-11-05T01:21:24.080Z,4.79
2022-11-05T01:21:37.309Z,4.79
2022-11-05T01:21:51.559Z,4.80
2022-11-05T01:22:03.422Z,4.79
2022-11-05T01:22:15.658Z,4.79
2022-11-05T01:22:28.389Z,4.80
2022-11-05T01:22:39.149Z,4.83
2022-11-05T01:22:50.000Z,4.83
2022-11-05T01:23:04.640Z,4.80
2022-11-05T01:23:19.400Z,4.83
2022-11-05T01:23:31.823Z,4.84
2022-11-05T01:23:44.301Z,4.83
2022-11-05T01:23:57.333Z,4.84
2022-11-05T01:24:09.871Z,4.83
2022-11-05T01:24:22.619Z,4.80
2022-11-05T01:24:35.341Z,4.83
2022-11-05T01:24:46.119Z,4.83
2022-11-05T01:24:58.583Z,4.83
2022-11-05T01:25:10.330Z,4.83
2022-11-05T01:25:21.069Z,4.83
2022-11-05T01:25:34.342Z,4.80
2022-11-05T01:25:46.080Z,4.84
2022-11-05T01:25:58.347Z,4.83
2022-11-05T01:26:10.837Z,4.83
2022-11-05T01:26:23.547Z,4.83
2022-11-05T01:26:34.310Z,4.80
2022-11-05T01:26:46.063Z,4.80
2022-11-05T01:26:58.802Z,4.80
2022-11-05T01:27:10.831Z,4.79
2022-11-05T01:27:24.551Z,4.80
2022-11-05T01:27:37.838Z,4.80
2022-11-05T01:27:50.100Z,4.80
2022-11-05T01:28:01.897Z,4.79
2022-11-05T01:28:14.421Z,4.79
2022-11-05T01:28:25.221Z,4.77
2022-11-05T01:28:37.843Z,4.77
2022-11-05T01:28:48.682Z,4.77
2022-11-05T01:29:00.717Z,4.77
2022-11-05T01:29:11.595Z,4.77
2022-11-05T01:29:23.360Z,4.77
2022-11-05T01:29:35.831Z,4.77
2022-11-05T01:29:48.304Z,4.76
2022-11-05T01:29:59.101Z,4.76
2022-11-05T01:30:09.898Z,4.75
2022-11-05T01:30:20.681Z,4.76
2022-11-05T01:30:31.467Z,4.76
2022-11-05T01:30:42.254Z,4.75
2022-11-05T01:30:54.430Z,4.75
2022-11-05T01:31:05.252Z,4.73
2022-11-05T01:31:16.971Z,4.73
2022-11-05T01:31:27.801Z,4.73
2022-11-05T01:31:40.270Z,4.73
2022-11-05T01:31:52.721Z,4.73
2022-11-05T01:32:04.681Z,4.73
2022-11-05T01:32:15.478Z,4.70
2022-11-05T01:32:27.956Z,4.70
2022-11-05T01:32:40.313Z,4.72
2022-11-05T01:32:52.064Z,4.70
2022-11-05T01:33:03.803Z,4.70
2022-11-05T01:33:14.931Z,4.70
2022-11-05T01:33:26.733Z,4.69
2022-11-05T01:33:38.543Z,4.69
2022-11-05T01:33:50.302Z,4.67
2022-11-05T01:34:02.074Z,4.67
2022-11-05T01:34:14.029Z,4.65
2022-11-05T01:34:25.792Z,4.64
2022-11-05T01:34:37.610Z,4.62
2022-11-05T01:34:49.315Z,4.62
2022-11-05T01:35:00.133Z,4.62
2022-11-05T01:35:11.821Z,4.64
2022-11-05T01:35:22.571Z,4.62
2022-11-05T01:35:35.052Z,4.62
2022-11-05T01:35:45.842Z,4.59
2022-11-05T01:35:56.632Z,4.59
2022-11-05T01:36:08.381Z,4.59
2022-11-05T01:36:19.199Z,4.58
2022-11-05T01:36:30.032Z,4.57
2022-11-05T01:36:40.994Z,4.57
2022-11-05T01:36:53.421Z,4.55
2022-11-05T01:37:04.229Z,4.55
2022-11-05T01:37:14.994Z,4.54
2022-11-05T01:37:25.822Z,4.54
2022-11-05T01:37:36.619Z,4.54
2022-11-05T01:37:48.591Z,4.55
2022-11-05T01:37:59.444Z,4.55
2022-11-05T01:38:11.194Z,4.55
2022-11-05T01:38:22.172Z,4.55
2022-11-05T01:38:34.435Z,4.54
2022-11-05T01:38:45.191Z,4.54
2022-11-05T01:38:55.966Z,4.54
2022-11-05T01:39:06.767Z,4.52
2022-11-05T01:39:17.537Z,4.54
2022-11-05T01:39:29.251Z,4.54
2022-11-05T01:39:40.002Z,4.52
2022-11-05T01:39:52.496Z,4.54
2022-11-05T01:40:04.232Z,4.52
2022-11-05T01:40:16.692Z,4.52
2022-11-05T01:40:27.475Z,4.51
2022-11-05T01:40:39.267Z,4.51
2022-11-05T01:40:50.057Z,4.50
2022-11-05T01:41:01.792Z,4.47
2022-11-05T01:41:12.583Z,4.50
2022-11-05T01:41:25.318Z,4.47
2022-11-05T01:41:36.123Z,4.46
2022-11-05T01:41:47.871Z,4.46
2022-11-05T01:41:59.832Z,4.44
2022-11-05T01:42:11.848Z,4.44
2022-11-05T01:42:24.283Z,4.44
2022-11-05T01:42:36.512Z,4.42
2022-11-05T01:42:49.005Z,4.42
2022-11-05T01:43:00.746Z,4.42
2022-11-05T01:43:13.339Z,4.39
2022-11-05T01:43:25.894Z,4.40
2022-11-05T01:43:36.712Z,4.39
2022-11-05T01:43:47.471Z,4.37
2022-11-05T01:43:59.991Z,4.36
2022-11-05T01:44:10.793Z,4.36
2022-11-05T01:44:23.283Z,4.34
2022-11-05T01:44:36.425Z,4.33
2022-11-05T01:44:47.164Z,4.33
2022-11-05T01:44:59.601Z,4.32
2022-11-05T01:45:12.427Z,4.28
2022-11-05T01:45:24.670Z,4.28
2022-11-05T01:45:37.643Z,4.28
2022-11-05T01:45:48.486Z,4.26
2022-11-05T01:46:00.221Z,4.26
2022-11-05T01:46:12.325Z,4.25
2022-11-05T01:46:24.073Z,4.25
2022-11-05T01:46:36.568Z,4.24
2022-11-05T01:46:47.342Z,4.25
2022-11-05T01:47:00.307Z,4.25
2022-11-05T01:47:13.928Z,4.24
2022-11-05T01:47:24.713Z,4.24
2022-11-05T01:47:37.233Z,4.22
2022-11-05T01:47:49.682Z,4.24
2022-11-05T01:48:00.486Z,4.22
2022-11-05T01:48:13.803Z,4.22
2022-11-05T01:48:24.593Z,4.22
2022-11-05T01:48:36.331Z,4.19
2022-11-05T01:48:47.093Z,4.21
2022-11-05T01:49:03.261Z,4.21
2022-11-05T01:49:15.405Z,4.19
2022-11-05T01:49:26.203Z,4.16
2022-11-05T01:49:37.194Z,4.18
2022-11-05T01:49:47.955Z,4.16
2022-11-05T01:50:00.194Z,4.16
2022-11-05T01:50:10.964Z,4.16
2022-11-05T01:50:21.735Z,4.16
2022-11-05T01:50:33.485Z,4.16
2022-11-05T01:50:45.343Z,4.15
2022-11-05T01:50:58.133Z,4.15
2022-11-05T01:51:09.864Z,4.15
2022-11-05T01:51:21.625Z,4.14
2022-11-05T01:51:33.844Z,4.12
2022-11-05T01:51:44.614Z,4.12
2022-11-05T01:51:56.385Z,4.12
2022-11-05T01:52:07.177Z,4.10
2022-11-05T01:52:19.915Z,4.12
2022-11-05T01:52:33.662Z,4.10
2022-11-05T01:52:46.163Z,4.08
2022-11-05T01:52:56.935Z,4.10
2022-11-05T01:53:09.049Z,4.08
2022-11-05T01:53:21.809Z,4.08
2022-11-05T01:53:34.296Z,4.07
2022-11-05T01:53:48.094Z,4.07
2022-11-05T01:53:58.915Z,4.06
2022-11-05T01:54:09.724Z,4.06
2022-11-05T01:54:20.529Z,4.04
2022-11-05T01:54:31.348Z,4.03
2022-11-05T01:54:43.335Z,4.03
2022-11-05T01:54:54.104Z,4.03
2022-11-05T01:55:04.875Z,4.03
2022-11-05T01:55:15.756Z,4.01
2022-11-05T01:55:27.522Z,4.01
2022-11-05T01:55:39.571Z,4.01
2022-11-05T01:55:51.475Z,3.98
2022-11-05T01:56:02.287Z,4.00
2022-11-05T01:56:14.525Z,3.98
2022-11-05T01:56:25.296Z,4.00
2022-11-05T01:57:15.490Z,0.00
2022-11-05T01:57:26.260Z,3.94
2022-11-05T01:57:38.745Z,3.94
2022-11-05T01:57:51.182Z,3.92
2022-11-05T01:58:03.660Z,3.94
2022-11-05T01:58:14.441Z,3.90
2022-11-05T01:58:27.921Z,3.90
2022-11-05T01:58:39.892Z,3.90
2022-11-05T01:58:52.342Z,3.90
2022-11-05T01:59:04.064Z,3.89
2022-11-05T01:59:16.411Z,3.89
2022-11-05T01:59:28.141Z,3.88
2022-11-05T01:59:38.941Z,3.88
2022-11-05T01:59:51.602Z,3.88
2022-11-05T02:00:04.110Z,3.85
2022-11-05T02:00:41.811Z,0.00
2022-11-05T02:00:52.581Z,3.82
2022-11-05T02:01:03.332Z,3.80
2022-11-05T02:01:14.093Z,3.79
2022-11-05T02:01:26.891Z,3.78
2022-11-05T02:01:38.891Z,3.78
2022-11-05T02:01:50.906Z,3.78
2022-11-05T02:02:03.960Z,3.76
2022-11-05T02:02:16.154Z,3.75
2022-11-05T02:02:27.011Z,3.72
2022-11-05T02:02:38.859Z,3.71
2022-11-05T02:02:51.646Z,3.71
2022-11-05T02:03:04.331Z,3.70
2022-11-05T02:03:15.131Z,3.70
2022-11-05T02:03:25.912Z,3.68
2022-11-05T02:03:38.362Z,3.68
2022-11-05T02:03:49.270Z,3.67
2022-11-05T02:04:01.755Z,3.65
2022-11-05T02:04:14.194Z,3.67
2022-11-05T02:04:28.105Z,3.62
2022-11-05T02:04:38.852Z,3.64
2022-11-05T02:04:52.089Z,3.62
2022-11-05T02:05:04.562Z,3.62
2022-11-05T02:05:16.813Z,3.62
2022-11-05T02:05:27.564Z,3.61
2022-11-05T02:05:39.771Z,3.58
2022-11-05T02:05:52.022Z,3.60
2022-11-05T02:06:04.494Z,3.61
2022-11-05T02:06:16.960Z,3.60
2022-11-05T02:06:30.655Z,3.58
2022-11-05T02:06:43.853Z,3.60
2022-11-05T02:06:57.602Z,3.60
2022-11-05T02:07:10.438Z,3.58
2022-11-05T02:07:21.183Z,3.60
2022-11-05T02:07:31.972Z,3.58
2022-11-05T02:08:23.405Z,0.00
2022-11-05T02:08:35.596Z,3.54
2022-11-05T02:08:48.122Z,3.53
2022-11-05T02:09:01.315Z,3.53
2022-11-05T02:09:14.257Z,3.52
2022-11-05T02:09:25.995Z,3.52
2022-11-05T02:09:36.808Z,3.50
2022-11-05T02:09:49.776Z,3.50
2022-11-05T02:10:00.544Z,3.50
2022-11-05T02:10:13.266Z,3.50
2022-11-05T02:10:25.475Z,3.50
2022-11-05T02:10:37.739Z,3.49
2022-11-05T02:10:50.194Z,3.49
2022-11-05T02:11:02.476Z,3.47
2022-11-05T02:11:14.208Z,3.49
2022-11-05T02:11:25.947Z,3.47
2022-11-05T02:11:36.715Z,3.46
2022-11-05T02:11:47.455Z,3.46
2022-11-05T02:11:59.696Z,3.44
2022-11-05T02:12:10.477Z,3.43
2022-11-05T02:12:22.729Z,3.44
2022-11-05T02:12:34.955Z,3.43
2022-11-05T02:12:47.414Z,3.42
2022-11-05T02:12:59.143Z,3.42
2022-11-05T02:13:11.865Z,3.42
2022-11-05T02:13:25.011Z,3.42
2022-11-05T02:13:36.738Z,3.42
2022-11-05T02:13:49.204Z,3.42
2022-11-05T02:14:01.916Z,3.39
2022-11-05T02:14:14.190Z,3.40
2022-11-05T02:14:26.676Z,3.39
2022-11-05T02:14:39.626Z,3.39
2022-11-05T02:14:51.345Z,3.39
2022-11-05T02:15:02.196Z,3.39
2022-11-05T02:15:13.977Z,3.36
2022-11-05T02:15:24.747Z,3.36
2022-11-05T02:15:35.571Z,3.36
2022-11-05T02:15:48.017Z,3.36
2022-11-05T02:15:59.777Z,3.36
2022-11-05T02:16:10.577Z,3.34
2022-11-05T02:16:22.316Z,3.34
2022-11-05T02:16:33.087Z,3.34
2022-11-05T02:16:43.896Z,3.34
2022-11-05T02:16:56.338Z,3.33
2022-11-05T02:17:08.879Z,3.34
2022-11-05T02:17:19.718Z,3.33
2022-11-05T02:17:32.179Z,3.33
2022-11-05T02:17:42.945Z,3.33
2022-11-05T02:17:55.409Z,3.33
2022-11-05T02:18:06.190Z,3.33
2022-11-05T02:18:18.707Z,3.34
2022-11-05T02:18:29.507Z,3.31
2022-11-05T02:18:41.484Z,3.33
2022-11-05T02:18:52.307Z,3.33
2022-11-05T02:19:04.086Z,3.34
2022-11-05T02:19:14.887Z,3.31
2022-11-05T02:19:25.698Z,3.33
2022-11-05T02:19:36.472Z,3.31
2022-11-05T02:19:49.668Z,3.34
2022-11-05T02:20:01.810Z,3.34
2022-11-05T02:20:12.567Z,3.34
2022-11-05T02:20:23.356Z,3.34
2022-11-05T02:20:34.110Z,3.34
2022-11-05T02:20:51.870Z,3.34
2022-11-05T02:21:03.219Z,3.36
2022-11-05T02:21:14.919Z,3.34
2022-11-05T02:21:26.668Z,3.34
2022-11-05T02:21:39.116Z,3.34
2022-11-05T02:21:50.827Z,3.34
2022-11-05T02:22:04.567Z,3.36
2022-11-05T02:22:17.048Z,3.36
2022-11-05T02:22:27.795Z,3.34
2022-11-05T02:22:40.208Z,3.36
2022-11-05T02:22:50.976Z,3.34
2022-11-05T02:23:03.948Z,3.36
2022-11-05T02:23:16.221Z,3.36
2022-11-05T02:23:27.969Z,3.39
2022-11-05T02:23:40.498Z,3.36
2022-11-05T02:23:52.184Z,3.36
2022-11-05T02:24:04.926Z,3.36
2022-11-05T02:24:15.738Z,3.34
2022-11-05T02:24:28.208Z,3.36
2022-11-05T02:24:39.008Z,3.34
2022-11-05T02:24:49.800Z,3.34
2022-11-05T02:25:02.260Z,3.34
2022-11-05T02:25:14.990Z,3.36
2022-11-05T02:25:26.740Z,3.34
2022-11-05T02:25:37.578Z,3.36
2022-11-05T02:25:48.380Z,3.34
2022-11-05T02:26:00.883Z,3.34
2022-11-05T02:26:14.119Z,3.36
2022-11-05T02:26:25.600Z,3.34
2022-11-05T02:26:38.029Z,3.33
2022-11-05T02:26:51.029Z,3.33
2022-11-05T02:27:04.229Z,3.34
2022-11-05T02:27:16.730Z,3.34
2022-11-05T02:27:29.678Z,3.33
2022-11-05T02:27:42.331Z,3.34
2022-11-05T02:27:54.804Z,3.36
2022-11-05T02:28:07.348Z,3.36
2022-11-05T02:28:19.830Z,3.33
2022-11-05T02:28:31.549Z,3.34
2022-11-05T02:28:43.278Z,3.33
2022-11-05T02:28:55.069Z,3.33
2022-11-05T02:29:07.281Z,3.31
2022-11-05T02:29:18.969Z,3.34
2022-11-05T02:29:31.203Z,3.34
2022-11-05T02:29:42.898Z,3.34
2022-11-05T02:29:56.616Z,3.34
2022-11-05T02:30:07.394Z,3.34
2022-11-05T02:30:20.371Z,3.34
2022-11-05T02:30:32.108Z,3.34
2022-11-05T02:30:42.880Z,3.36
2022-11-05T02:30:55.610Z,3.34
2022-11-05T02:31:06.439Z,3.34
2022-11-05T02:31:18.448Z,3.36
2022-11-05T02:31:30.197Z,3.34
2022-11-05T02:31:42.641Z,3.34
2022-11-05T02:31:54.437Z,3.34
2022-11-05T02:32:06.898Z,3.34
2022-11-05T02:32:17.669Z,3.34
2022-11-05T02:32:30.871Z,3.33
2022-11-05T02:32:42.610Z,3.33
2022-11-05T02:32:53.412Z,3.33
2022-11-05T02:33:06.123Z,3.33
2022-11-05T02:33:17.858Z,3.31
2022-11-05T02:33:28.597Z,3.31
2022-11-05T02:33:40.830Z,3.31
2022-11-05T02:33:53.560Z,3.31
2022-11-05T02:34:06.041Z,3.30
2022-11-05T02:34:18.312Z,3.31
2022-11-05T02:34:30.771Z,3.30
2022-11-05T02:34:43.253Z,3.30
2022-11-05T02:34:55.698Z,3.30
2022-11-05T02:35:08.152Z,3.30
2022-11-05T02:35:19.870Z,3.33
2022-11-05T02:35:32.307Z,3.28
2022-11-05T02:35:44.749Z,3.30
2022-11-05T02:35:55.559Z,3.28
2022-11-05T02:36:08.109Z,3.28
2022-11-05T02:36:19.887Z,3.28
2022-11-05T02:36:31.671Z,3.28
2022-11-05T02:36:43.891Z,3.28
2022-11-05T02:36:55.670Z,3.28
2022-11-05T02:37:08.141Z,3.27
2022-11-05T02:37:18.979Z,3.27
2022-11-05T02:37:30.758Z,3.27
2022-11-05T02:37:41.529Z,3.28
2022-11-05T02:37:52.351Z,3.27
2022-11-05T02:38:04.850Z,3.25
2022-11-05T02:38:18.597Z,3.25
2022-11-05T02:38:30.860Z,3.24
2022-11-05T02:38:43.371Z,3.24
2022-11-05T02:38:54.169Z,3.24
2022-11-05T02:39:04.956Z,3.24
2022-11-05T02:39:15.739Z,3.25
2022-11-05T02:39:26.511Z,3.25
2022-11-05T02:39:38.962Z,3.23